createdAt,value
2022-10-17T00:00:55.841Z,22.80
2022-10-17T00:03:57.869Z,23.73
2022-10-17T00:07:00.570Z,23.63
2022-10-17T00:10:03.332Z,19.80
2022-10-17T00:13:06.477Z,27.92
2022-10-17T00:16:09.162Z,31.23
2022-10-17T00:19:11.329Z,43.90
2022-10-17T00:22:14.111Z,18.10
2022-10-17T00:25:16.519Z,30.85
2022-10-17T00:28:18.750Z,25.25
2022-10-17T00:31:23.419Z,30.17
2022-10-17T00:34:26.194Z,17.23
2022-10-17T00:37:28.517Z,32.35
2022-10-17T00:40:30.627Z,21.60
2022-10-17T00:43:51.197Z,22.58
2022-10-17T00:47:02.591Z,24.23
2022-10-17T00:50:07.072Z,26.75
2022-10-17T00:53:09.713Z,26.40
2022-10-17T00:56:15.802Z,27.17
2022-10-17T00:59:22.086Z,26.23
2022-10-17T01:02:24.295Z,24.48
2022-10-17T01:05:27.449Z,21.45
2022-10-17T01:08:30.654Z,23.63
2022-10-17T01:11:40.782Z,33.35
2022-10-17T01:15:02.379Z,25.75
2022-10-17T01:18:13.125Z,23.02
2022-10-17T01:21:48.361Z,24.42
2022-10-17T01:25:01.929Z,27.58
2022-10-17T01:32:30.792Z,21.48
2022-10-17T01:35:38.370Z,19.80
2022-10-17T01:38:49.065Z,25.33
2022-10-17T01:42:19.458Z,16.95
2022-10-17T01:45:25.798Z,19.73
2022-10-17T01:48:36.319Z,19.00
2022-10-17T01:51:43.540Z,23.45
2022-10-17T01:54:51.322Z,22.17
2022-10-17T01:57:58.039Z,19.30
2022-10-17T02:01:07.015Z,22.33
2022-10-17T02:04:11.466Z,20.38
2022-10-17T02:07:13.960Z,20.63
2022-10-17T02:10:26.157Z,28.20
2022-10-17T02:13:42.556Z,22.45
2022-10-17T02:17:00.301Z,22.05
2022-10-17T02:20:11.536Z,19.90
2022-10-17T02:23:30.643Z,14.68
2022-10-17T02:26:48.507Z,22.17
2022-10-17T02:30:01.244Z,15.55
2022-10-17T02:33:06.801Z,20.23
2022-10-17T02:36:17.979Z,26.63
2022-10-17T02:39:25.385Z,18.65
2022-10-17T02:42:30.330Z,14.73
2022-10-17T02:45:36.587Z,16.85
2022-10-17T02:48:48.571Z,20.80
2022-10-17T02:52:04.256Z,17.42
2022-10-17T02:55:18.093Z,23.42
2022-10-17T02:58:28.365Z,17.45
2022-10-17T03:01:31.315Z,19.50
2022-10-17T03:04:34.272Z,17.55
2022-10-17T03:07:39.438Z,19.75
2022-10-17T03:10:42.791Z,15.15
2022-10-17T03:13:47.608Z,21.35
2022-10-17T03:16:51.315Z,16.63
2022-10-17T03:19:54.640Z,17.08
2022-10-17T03:22:56.782Z,20.02
2022-10-17T03:25:58.875Z,17.10
2022-10-17T03:29:02.121Z,11.88
2022-10-17T03:32:05.479Z,19.40
2022-10-17T03:35:14.090Z,21.13
2022-10-17T03:38:19.331Z,19.58
2022-10-17T03:41:21.669Z,24.40
2022-10-17T03:44:24.029Z,25.10
2022-10-17T03:47:26.214Z,21.90
2022-10-17T03:50:28.531Z,17.55
2022-10-17T03:53:32.606Z,21.85
2022-10-17T03:56:34.720Z,18.27
2022-10-17T03:59:43.483Z,26.38
2022-10-17T04:02:50.209Z,23.58
2022-10-17T04:05:57.770Z,35.28
2022-10-17T04:09:00.146Z,43.20
2022-10-17T04:12:24.849Z,38.35
2022-10-17T04:15:27.364Z,37.97
2022-10-17T04:18:29.913Z,36.53
2022-10-17T04:21:32.219Z,41.17
2022-10-17T04:24:39.920Z,40.20
2022-10-17T04:27:49.525Z,48.60
2022-10-17T04:31:11.798Z,39.63
2022-10-17T04:34:34.552Z,30.63
2022-10-17T04:37:36.616Z,34.58
2022-10-17T04:40:45.070Z,31.88
2022-10-17T04:43:51.019Z,33.92
2022-10-17T04:46:56.039Z,31.15
2022-10-17T04:49:59.173Z,21.35
2022-10-17T04:53:01.936Z,27.02
2022-10-17T04:56:12.776Z,19.95
2022-10-17T04:59:15.210Z,21.48
2022-10-17T05:02:19.380Z,27.30
2022-10-17T05:05:22.302Z,31.35
2022-10-17T05:08:29.896Z,21.17
2022-10-17T05:11:32.656Z,21.48
2022-10-17T05:14:34.745Z,24.70
2022-10-17T05:17:37.017Z,24.17
2022-10-17T05:20:39.248Z,35.50
2022-10-17T05:23:42.075Z,33.10
2022-10-17T05:26:44.160Z,25.00
2022-10-17T05:29:47.510Z,28.55
2022-10-17T05:33:01.286Z,31.38
2022-10-17T05:36:03.728Z,33.22
2022-10-17T05:39:06.258Z,24.85
2022-10-17T05:42:09.857Z,25.23
2022-10-17T05:45:12.006Z,25.15
2022-10-17T05:48:14.423Z,29.10
2022-10-17T05:51:16.593Z,22.38
2022-10-17T05:54:18.953Z,32.97
2022-10-17T05:57:21.111Z,23.67
2022-10-17T06:00:23.387Z,23.38
2022-10-17T06:03:32.682Z,21.25
2022-10-17T06:06:40.363Z,24.73
2022-10-17T06:09:43.012Z,28.27
2022-10-17T06:12:46.286Z,17.95
2022-10-17T06:15:49.589Z,16.48
2022-10-17T06:18:51.773Z,14.80
2022-10-17T06:21:54.702Z,18.02
2022-10-17T06:24:58.503Z,15.05
2022-10-17T06:28:01.167Z,12.15
2022-10-17T06:31:11.661Z,13.07
2022-10-17T06:34:13.785Z,21.05
2022-10-17T06:37:16.418Z,12.57
2022-10-17T06:40:21.181Z,16.00
2022-10-17T06:43:27.866Z,16.63
2022-10-17T06:46:53.021Z,22.15
2022-10-17T06:49:56.530Z,23.92
2022-10-17T06:53:18.727Z,15.90
2022-10-17T06:56:52.861Z,15.70
2022-10-17T07:00:21.394Z,11.73
2022-10-17T07:03:27.073Z,25.23
2022-10-17T07:06:29.353Z,24.48
2022-10-17T07:09:35.874Z,20.00
2022-10-17T07:12:37.936Z,21.92
2022-10-17T07:15:40.102Z,21.15
2022-10-17T07:18:43.016Z,35.33
2022-10-17T07:21:45.222Z,21.33
2022-10-17T07:27:56.070Z,26.55
2022-10-17T07:31:07.127Z,22.98
2022-10-17T07:34:09.279Z,23.38
2022-10-17T07:37:12.047Z,16.75
2022-10-17T07:40:17.539Z,22.88
2022-10-17T07:43:19.754Z,19.88
2022-10-17T07:46:22.354Z,20.50
2022-10-17T07:49:25.142Z,17.73
2022-10-17T07:52:28.134Z,20.73
2022-10-17T07:55:31.259Z,16.55
2022-10-17T07:58:33.505Z,19.23
2022-10-17T08:01:35.687Z,21.55
2022-10-17T08:04:37.892Z,29.20
2022-10-17T08:07:41.481Z,22.70
2022-10-17T08:10:43.892Z,25.55
2022-10-17T08:13:46.010Z,20.83
2022-10-17T08:16:48.079Z,28.95
2022-10-17T08:19:50.165Z,18.33
2022-10-17T08:22:53.700Z,27.38
2022-10-17T08:25:59.966Z,26.67
2022-10-17T08:29:02.133Z,21.02
2022-10-17T08:32:07.649Z,14.50
2022-10-17T08:35:11.717Z,23.10
2022-10-17T08:38:14.654Z,26.85
2022-10-17T08:41:47.628Z,26.33
2022-10-17T08:45:15.919Z,21.98
2022-10-17T08:48:23.971Z,25.23
2022-10-17T08:51:32.644Z,17.90
2022-10-17T08:54:42.213Z,16.38
2022-10-17T08:57:44.718Z,15.85
2022-10-17T09:01:13.271Z,14.80
2022-10-17T09:04:44.536Z,8.23
2022-10-17T09:08:20.296Z,13.38
2022-10-17T09:11:45.474Z,7.07
2022-10-17T09:14:59.091Z,7.07
2022-10-17T09:18:13.452Z,7.47
2022-10-17T09:21:30.564Z,5.55
2022-10-17T09:24:42.483Z,6.63
2022-10-17T09:27:51.997Z,12.38
2022-10-17T09:31:13.278Z,9.02
2022-10-17T09:34:16.545Z,12.45
2022-10-17T09:37:19.929Z,8.07
2022-10-17T09:40:27.035Z,8.57
2022-10-17T09:43:30.443Z,12.27
2022-10-17T09:46:41.897Z,7.85
2022-10-17T09:49:47.084Z,8.10
2022-10-17T09:52:51.019Z,7.65
2022-10-17T09:56:03.193Z,9.57
2022-10-17T09:59:05.303Z,9.73
2022-10-17T10:02:13.262Z,9.02
2022-10-17T10:05:30.176Z,23.73
2022-10-17T10:08:38.031Z,13.63
2022-10-17T10:11:52.476Z,11.80
2022-10-17T10:14:55.547Z,9.05
2022-10-17T10:17:57.769Z,9.88
2022-10-17T10:21:10.487Z,7.55
2022-10-17T10:24:15.268Z,9.98
2022-10-17T10:27:18.867Z,6.78
2022-10-17T10:30:25.920Z,7.82
2022-10-17T10:33:30.717Z,13.35
2022-10-17T10:36:46.379Z,11.30
2022-10-17T10:39:54.806Z,6.43
2022-10-17T10:43:04.878Z,5.47
2022-10-17T10:46:37.008Z,5.72
2022-10-17T10:49:39.775Z,5.90
2022-10-17T10:53:02.728Z,4.72
2022-10-17T10:56:13.623Z,10.38
2022-10-17T10:59:42.868Z,5.32
2022-10-17T11:03:12.719Z,10.73
2022-10-17T11:06:25.262Z,4.90
2022-10-17T11:13:29.234Z,5.95
2022-10-17T11:17:00.001Z,4.65
2022-10-17T11:20:30.502Z,8.32
2022-10-17T11:23:56.525Z,7.47
2022-10-17T11:27:05.129Z,11.35
2022-10-17T11:30:12.110Z,5.20
2022-10-17T11:33:26.831Z,8.38
2022-10-17T11:36:32.992Z,3.47
2022-10-17T11:39:42.378Z,4.00
2022-10-17T11:43:15.742Z,2.63
2022-10-17T11:46:24.998Z,4.75
2022-10-17T11:49:51.561Z,3.58
2022-10-17T11:52:59.250Z,7.97
2022-10-17T11:56:02.952Z,4.25
2022-10-17T11:59:41.990Z,4.05
2022-10-17T12:02:52.170Z,7.82
2022-10-17T12:06:18.233Z,5.10
2022-10-17T12:09:42.606Z,3.63
2022-10-17T12:12:44.744Z,7.63
2022-10-17T12:15:51.338Z,4.43
2022-10-17T12:19:03.046Z,4.47
2022-10-17T12:22:28.864Z,2.33
2022-10-17T12:25:34.723Z,5.18
2022-10-17T12:28:48.175Z,5.18
2022-10-17T12:31:50.878Z,2.35
2022-10-17T12:34:55.654Z,5.28
2022-10-17T12:38:01.917Z,2.67
2022-10-17T12:41:05.216Z,3.30
2022-10-17T12:44:14.969Z,6.57
2022-10-17T12:47:38.326Z,8.77
2022-10-17T12:51:30.720Z,4.82
2022-10-17T12:54:24.483Z,3.90
2022-10-17T12:57:48.482Z,16.88
2022-10-17T13:04:22.155Z,3.72
2022-10-17T13:07:26.377Z,9.27
2022-10-17T13:10:31.729Z,3.72
2022-10-17T13:13:39.338Z,6.13
2022-10-17T13:16:52.205Z,3.92
2022-10-17T13:19:55.455Z,2.58
2022-10-17T13:22:58.650Z,4.82
2022-10-17T13:26:15.874Z,5.93
2022-10-17T13:29:46.522Z,2.03
2022-10-17T13:32:52.167Z,3.95
2022-10-17T13:36:00.508Z,4.43
2022-10-17T13:39:12.526Z,4.90
2022-10-17T13:42:30.366Z,6.40
2022-10-17T13:45:37.101Z,2.20
2022-10-17T13:48:39.594Z,3.45
2022-10-17T13:51:48.217Z,4.15
2022-10-17T13:54:51.697Z,4.82
2022-10-17T13:57:58.368Z,6.93
2022-10-17T14:01:01.171Z,6.22
2022-10-17T14:04:19.496Z,4.03
2022-10-17T14:07:46.132Z,11.73
2022-10-17T14:10:49.352Z,5.90
2022-10-17T14:13:59.110Z,6.00
2022-10-17T14:17:01.415Z,9.98
2022-10-17T14:23:38.467Z,16.30
2022-10-17T14:26:55.789Z,6.00
2022-10-17T14:30:04.220Z,5.05
2022-10-17T14:33:11.163Z,10.32
2022-10-17T14:36:14.557Z,22.17
2022-10-17T14:39:23.502Z,8.05
2022-10-17T14:42:26.268Z,8.95
2022-10-17T14:45:38.826Z,8.13
2022-10-17T14:48:43.296Z,8.80
2022-10-17T14:52:16.789Z,5.90
2022-10-17T14:55:25.606Z,7.57
2022-10-17T14:58:33.615Z,9.50
2022-10-17T15:01:36.132Z,9.55
2022-10-17T15:04:42.328Z,12.65
2022-10-17T15:07:46.962Z,9.50
2022-10-17T15:10:52.082Z,9.85
2022-10-17T15:13:54.675Z,9.65
2022-10-17T15:16:56.861Z,13.60
2022-10-17T15:19:59.295Z,12.55
2022-10-17T15:23:02.407Z,14.05
2022-10-17T15:26:16.172Z,17.20
2022-10-17T15:29:18.766Z,15.20
2022-10-17T15:32:21.152Z,16.55
2022-10-17T15:35:26.542Z,23.85
2022-10-17T15:38:29.397Z,26.38
2022-10-17T15:41:32.816Z,20.52
2022-10-17T15:44:36.963Z,21.20
2022-10-17T15:47:39.312Z,24.63
2022-10-17T15:50:42.154Z,27.38
2022-10-17T15:53:45.798Z,22.40
2022-10-17T15:57:34.144Z,20.83
2022-10-17T16:00:38.583Z,26.92
2022-10-17T16:03:40.662Z,21.13
2022-10-17T16:06:43.309Z,37.08
2022-10-17T16:09:46.274Z,30.05
2022-10-17T16:12:51.411Z,37.25
2022-10-17T16:15:54.028Z,34.33
2022-10-17T16:18:57.724Z,37.92
2022-10-17T16:22:04.331Z,38.67
2022-10-17T16:25:19.644Z,33.78
2022-10-17T16:28:23.081Z,26.73
2022-10-17T16:31:29.483Z,30.95
2022-10-17T16:34:32.954Z,44.08
2022-10-17T16:37:38.193Z,44.88
2022-10-17T16:40:41.453Z,31.92
2022-10-17T16:43:45.517Z,38.05
2022-10-17T16:46:48.485Z,40.28
2022-10-17T16:49:51.338Z,47.58
2022-10-17T16:52:56.248Z,43.28
2022-10-17T16:56:10.209Z,39.08
2022-10-17T16:59:13.004Z,54.95
2022-10-17T17:02:24.707Z,42.55
2022-10-17T17:05:27.816Z,38.10
2022-10-17T17:08:31.745Z,48.72
2022-10-17T17:11:33.835Z,41.83
2022-10-17T17:14:36.089Z,38.08
2022-10-17T17:17:50.313Z,38.78
2022-10-17T17:21:00.193Z,37.28
2022-10-17T17:24:04.564Z,44.83
2022-10-17T17:27:08.793Z,45.45
2022-10-17T17:30:13.935Z,55.35
2022-10-17T17:33:17.890Z,56.63
2022-10-17T17:36:22.557Z,49.20
2022-10-17T17:39:24.551Z,43.63
2022-10-17T17:42:26.874Z,45.45
2022-10-17T17:45:29.449Z,43.70
2022-10-17T17:48:32.736Z,38.67
2022-10-17T17:51:34.893Z,44.95
2022-10-17T17:54:40.072Z,48.25
2022-10-17T17:57:45.817Z,37.40
2022-10-17T18:00:47.938Z,46.47
2022-10-17T18:03:52.647Z,52.00
2022-10-17T18:07:00.815Z,40.08
2022-10-17T18:10:04.438Z,48.40
2022-10-17T18:13:08.024Z,43.90
2022-10-17T18:16:17.119Z,34.03
2022-10-17T18:19:19.417Z,45.22
2022-10-17T18:22:25.385Z,39.55
2022-10-17T18:25:28.523Z,51.05
2022-10-17T18:28:30.857Z,54.55
2022-10-17T18:31:36.181Z,23.55
2022-10-17T18:34:38.414Z,49.75
2022-10-17T18:37:42.776Z,46.75
2022-10-17T18:40:47.318Z,40.53
2022-10-17T18:43:53.525Z,47.22
2022-10-17T18:46:59.856Z,42.63
2022-10-17T18:50:06.706Z,44.83
2022-10-17T18:53:09.716Z,43.95
2022-10-17T18:56:16.455Z,42.20
2022-10-17T18:59:19.387Z,44.63
2022-10-17T19:02:21.503Z,50.80
2022-10-17T19:05:24.757Z,48.22
2022-10-17T19:08:26.832Z,45.47
2022-10-17T19:11:31.968Z,41.22
2022-10-17T19:14:34.297Z,44.42
2022-10-17T19:17:38.328Z,48.88
2022-10-17T19:20:42.966Z,44.90
2022-10-17T19:23:52.997Z,49.60
2022-10-17T19:26:58.748Z,33.00
2022-10-17T19:30:01.839Z,41.70
2022-10-17T19:33:05.773Z,37.78
2022-10-17T19:36:11.411Z,44.67
2022-10-17T19:39:16.442Z,49.50
2022-10-17T19:42:19.101Z,46.22
2022-10-17T19:45:25.577Z,50.22
2022-10-17T19:48:31.529Z,39.60
2022-10-17T19:51:34.281Z,44.60
2022-10-17T19:54:36.307Z,45.20
2022-10-17T19:57:38.543Z,43.25
2022-10-17T20:00:47.482Z,35.97
2022-10-17T20:03:54.749Z,44.13
2022-10-17T20:07:00.112Z,38.42
2022-10-17T20:10:04.705Z,42.22
2022-10-17T20:13:08.611Z,43.30
2022-10-17T20:16:14.028Z,45.15
2022-10-17T20:19:16.414Z,48.45
2022-10-17T20:22:18.808Z,45.30
2022-10-17T20:25:22.643Z,39.22
2022-10-17T20:28:26.888Z,49.00
2022-10-17T20:31:29.390Z,37.22
2022-10-17T20:34:35.705Z,44.67
2022-10-17T20:37:42.375Z,38.58
2022-10-17T20:40:46.314Z,37.33
2022-10-17T20:43:51.971Z,37.70
2022-10-17T20:47:01.697Z,34.72
2022-10-17T20:50:07.642Z,45.58
2022-10-17T20:56:36.576Z,45.75
2022-10-17T20:59:38.662Z,33.65
2022-10-17T21:02:40.956Z,36.55
2022-10-17T21:05:43.376Z,41.63
2022-10-17T21:08:46.697Z,37.70
2022-10-17T21:11:51.906Z,35.33
2022-10-17T21:14:54.684Z,37.15
2022-10-17T21:17:56.764Z,33.65
2022-10-17T21:21:15.130Z,37.08
2022-10-17T21:24:19.613Z,34.03
2022-10-17T21:27:21.664Z,35.25
2022-10-17T21:30:24.393Z,46.40
2022-10-17T21:33:29.417Z,41.00
2022-10-17T21:36:32.301Z,48.17
2022-10-17T21:39:35.839Z,35.22
2022-10-17T21:42:39.185Z,38.47
2022-10-17T21:45:45.553Z,33.33
2022-10-17T21:48:49.164Z,33.72
2022-10-17T21:51:52.623Z,41.08
2022-10-17T21:54:55.957Z,37.25
2022-10-17T21:57:58.162Z,44.95
2022-10-17T22:01:09.348Z,31.77
2022-10-17T22:04:18.436Z,53.10
2022-10-17T22:07:20.613Z,40.90
2022-10-17T22:10:24.171Z,33.92
2022-10-17T22:13:26.663Z,47.63
2022-10-17T22:16:29.215Z,34.65
2022-10-17T22:19:32.405Z,32.60
2022-10-17T22:22:34.464Z,42.70
2022-10-17T22:25:40.454Z,32.50
2022-10-17T22:28:42.537Z,33.90
2022-10-17T22:31:44.953Z,36.00
2022-10-17T22:34:48.341Z,43.03
2022-10-17T22:37:52.936Z,38.65
2022-10-17T22:40:55.301Z,43.60
2022-10-17T22:43:57.582Z,43.40
2022-10-17T22:46:59.709Z,42.42
2022-10-17T22:50:01.818Z,40.67
2022-10-17T22:53:05.206Z,37.58
2022-10-17T22:56:16.647Z,35.42
2022-10-17T22:59:19.324Z,38.13
2022-10-17T23:02:24.150Z,31.52
2022-10-17T23:05:27.390Z,35.65
2022-10-17T23:08:29.628Z,38.45
2022-10-17T23:11:31.870Z,37.70
2022-10-17T23:14:37.658Z,31.90
2022-10-17T23:17:40.864Z,35.45
2022-10-17T23:20:43.428Z,41.20
2022-10-17T23:23:46.916Z,25.27
2022-10-17T23:26:49.245Z,44.80
2022-10-17T23:29:53.535Z,40.17
2022-10-17T23:32:56.762Z,41.83
2022-10-17T23:36:03.523Z,33.97
2022-10-17T23:39:07.307Z,30.65
2022-10-17T23:42:09.501Z,34.50
2022-10-17T23:45:12.752Z,30.35
2022-10-17T23:48:14.908Z,28.88
2022-10-17T23:51:17.179Z,27.50
2022-10-17T23:54:19.623Z,36.67
2022-10-17T23:57:21.747Z,30.40
